sensor_id;sensor_type;location;lat;lon;timestamp;pressure;altitude;pressure_sealevel;temperature;humidity
49063;BME280;34876;51.464;-0.150;2022-08-01T00:03:30;101774.24;;;25.22;45.77
49063;BME280;34876;51.464;-0.150;2022-08-01T00:05:59;101771.34;;;25.16;45.91
49063;BME280;34876;51.464;-0.150;2022-08-01T00:08:29;101765.95;;;25.15;45.91
49063;BME280;34876;51.464;-0.150;2022-08-01T00:10:58;101762.18;;;25.17;45.84
49063;BME280;34876;51.464;-0.150;2022-08-01T00:13:27;101763.64;;;25.25;45.63
49063;BME280;34876;51.464;-0.150;2022-08-01T00:15:56;101769.32;;;25.25;45.62
49063;BME280;34876;51.464;-0.150;2022-08-01T00:18:25;101772.61;;;25.26;45.61
49063;BME280;34876;51.464;-0.150;2022-08-01T00:20:54;101767.87;;;25.24;45.60
49063;BME280;34876;51.464;-0.150;2022-08-01T00:23:23;101761.59;;;25.26;45.58
49063;BME280;34876;51.464;-0.150;2022-08-01T00:25:52;101756.57;;;25.29;45.51
49063;BME280;34876;51.464;-0.150;2022-08-01T00:28:23;101751.58;;;25.27;45.56
49063;BME280;34876;51.464;-0.150;2022-08-01T00:30:52;101751.85;;;25.17;45.83
49063;BME280;34876;51.464;-0.150;2022-08-01T00:33:21;101750.22;;;25.23;45.65
49063;BME280;34876;51.464;-0.150;2022-08-01T00:35:50;101756.07;;;25.26;45.58
49063;BME280;34876;51.464;-0.150;2022-08-01T00:38:21;101757.07;;;25.26;45.56
49063;BME280;34876;51.464;-0.150;2022-08-01T00:40:51;101758.15;;;25.11;45.91
49063;BME280;34876;51.464;-0.150;2022-08-01T00:43:20;101761.75;;;25.16;45.79
49063;BME280;34876;51.464;-0.150;2022-08-01T00:45:49;101765.71;;;25.16;45.78
49063;BME280;34876;51.464;-0.150;2022-08-01T00:48:18;101762.09;;;25.18;45.73
49063;BME280;34876;51.464;-0.150;2022-08-01T00:50:48;101762.15;;;25.18;45.68
49063;BME280;34876;51.464;-0.150;2022-08-01T00:53:18;101765.50;;;25.21;45.62
49063;BME280;34876;51.464;-0.150;2022-08-01T00:55:47;101771.15;;;25.21;45.62
49063;BME280;34876;51.464;-0.150;2022-08-01T00:58:16;101768.72;;;25.14;45.73
49063;BME280;34876;51.464;-0.150;2022-08-01T01:00:45;101767.11;;;25.12;45.81
49063;BME280;34876;51.464;-0.150;2022-08-01T01:03:15;101766.73;;;25.18;45.62
49063;BME280;34876;51.464;-0.150;2022-08-01T01:05:51;101761.51;;;25.19;45.59
49063;BME280;34876;51.464;-0.150;2022-08-01T01:08:30;101764.80;;;25.18;45.58
49063;BME280;34876;51.464;-0.150;2022-08-01T01:11:04;101766.45;;;25.15;45.67
49063;BME280;34876;51.464;-0.150;2022-08-01T01:13:41;101769.97;;;25.17;45.58
49063;BME280;34876;51.464;-0.150;2022-08-01T01:16:14;101772.77;;;25.19;45.53
49063;BME280;34876;51.464;-0.150;2022-08-01T01:18:47;101773.95;;;25.17;45.54
49063;BME280;34876;51.464;-0.150;2022-08-01T01:21:42;101781.01;;;25.17;45.53
49063;BME280;34876;51.464;-0.150;2022-08-01T01:24:28;101783.45;;;25.16;45.54
49063;BME280;34876;51.464;-0.150;2022-08-01T01:27:10;101779.05;;;25.19;45.47
49063;BME280;34876;51.464;-0.150;2022-08-01T01:29:48;101780.00;;;25.11;45.68
49063;BME280;34876;51.464;-0.150;2022-08-01T01:32:22;101778.80;;;25.15;45.55
49063;BME280;34876;51.464;-0.150;2022-08-01T01:34:54;101774.79;;;25.18;45.46
49063;BME280;34876;51.464;-0.150;2022-08-01T01:37:27;101779.48;;;25.21;45.39
49063;BME280;34876;51.464;-0.150;2022-08-01T01:40:00;101783.79;;;25.22;45.36
49063;BME280;34876;51.464;-0.150;2022-08-01T01:42:30;101786.24;;;25.15;45.51
49063;BME280;34876;51.464;-0.150;2022-08-01T01:45:00;101783.29;;;25.19;45.42
49063;BME280;34876;51.464;-0.150;2022-08-01T01:47:31;101780.26;;;25.19;45.39
49063;BME280;34876;51.464;-0.150;2022-08-01T01:50:03;101779.26;;;25.19;45.38
49063;BME280;34876;51.464;-0.150;2022-08-01T01:52:33;101780.37;;;25.18;45.42
49063;BME280;34876;51.464;-0.150;2022-08-01T01:55:06;101778.56;;;25.12;45.56
49063;BME280;34876;51.464;-0.150;2022-08-01T01:57:40;101775.37;;;25.15;45.49
49063;BME280;34876;51.464;-0.150;2022-08-01T02:00:11;101771.57;;;25.14;45.49
49063;BME280;34876;51.464;-0.150;2022-08-01T02:02:41;101769.50;;;25.16;45.45
49063;BME280;34876;51.464;-0.150;2022-08-01T02:05:13;101768.79;;;25.16;45.44
49063;BME280;34876;51.464;-0.150;2022-08-01T02:07:43;101764.38;;;25.18;45.36
49063;BME280;34876;51.464;-0.150;2022-08-01T02:10:15;101765.17;;;25.17;45.37
49063;BME280;34876;51.464;-0.150;2022-08-01T02:12:46;101768.53;;;25.14;45.47
49063;BME280;34876;51.464;-0.150;2022-08-01T02:15:19;101767.96;;;25.16;45.39
49063;BME280;34876;51.464;-0.150;2022-08-01T02:17:49;101770.63;;;25.19;45.33
49063;BME280;34876;51.464;-0.150;2022-08-01T02:20:21;101770.22;;;25.14;45.45
49063;BME280;34876;51.464;-0.150;2022-08-01T02:22:53;101769.23;;;25.17;45.36
49063;BME280;34876;51.464;-0.150;2022-08-01T02:25:29;101764.98;;;25.20;45.27
49063;BME280;34876;51.464;-0.150;2022-08-01T02:28:04;101766.77;;;25.11;45.50
49063;BME280;34876;51.464;-0.150;2022-08-01T02:30:36;101768.65;;;25.16;45.36
49063;BME280;34876;51.464;-0.150;2022-08-01T02:33:08;101770.32;;;25.17;45.33
49063;BME280;34876;51.464;-0.150;2022-08-01T02:35:42;101762.70;;;25.16;45.33
49063;BME280;34876;51.464;-0.150;2022-08-01T02:38:14;101759.38;;;25.13;45.41
49063;BME280;34876;51.464;-0.150;2022-08-01T02:40:46;101753.73;;;25.15;45.35
49063;BME280;34876;51.464;-0.150;2022-08-01T02:43:17;101752.50;;;25.11;45.44
49063;BME280;34876;51.464;-0.150;2022-08-01T02:45:51;101750.17;;;25.07;45.52
49063;BME280;34876;51.464;-0.150;2022-08-01T02:48:23;101748.70;;;25.05;45.57
49063;BME280;34876;51.464;-0.150;2022-08-01T02:50:55;101750.62;;;25.12;45.41
49063;BME280;34876;51.464;-0.150;2022-08-01T02:53:26;101751.45;;;25.10;45.46
49063;BME280;34876;51.464;-0.150;2022-08-01T02:55:57;101749.65;;;25.11;45.43
49063;BME280;34876;51.464;-0.150;2022-08-01T02:58:28;101744.14;;;25.14;45.34
49063;BME280;34876;51.464;-0.150;2022-08-01T03:00:59;101741.78;;;25.16;45.30
49063;BME280;34876;51.464;-0.150;2022-08-01T03:03:29;101740.42;;;25.13;45.35
49063;BME280;34876;51.464;-0.150;2022-08-01T03:05:59;101740.27;;;25.06;45.52
49063;BME280;34876;51.464;-0.150;2022-08-01T03:08:30;101740.74;;;25.05;45.55
49063;BME280;34876;51.464;-0.150;2022-08-01T03:11:01;101737.56;;;25.09;45.46
49063;BME280;34876;51.464;-0.150;2022-08-01T03:13:33;101735.64;;;25.08;45.47
49063;BME280;34876;51.464;-0.150;2022-08-01T03:16:03;101737.53;;;25.09;45.44
49063;BME280;34876;51.464;-0.150;2022-08-01T03:18:33;101743.54;;;25.11;45.39
49063;BME280;34876;51.464;-0.150;2022-08-01T03:21:04;101743.12;;;25.09;45.42
49063;BME280;34876;51.464;-0.150;2022-08-01T03:23:36;101739.77;;;25.11;45.39
49063;BME280;34876;51.464;-0.150;2022-08-01T03:26:06;101741.09;;;25.05;45.49
49063;BME280;34876;51.464;-0.150;2022-08-01T03:28:37;101745.85;;;25.04;45.51
49063;BME280;34876;51.464;-0.150;2022-08-01T03:31:07;101750.27;;;25.09;45.41
49063;BME280;34876;51.464;-0.150;2022-08-01T03:33:36;101752.41;;;25.08;45.43
49063;BME280;34876;51.464;-0.150;2022-08-01T03:36:09;101753.68;;;25.07;45.44
49063;BME280;34876;51.464;-0.150;2022-08-01T03:38:40;101751.61;;;25.02;45.53
49063;BME280;34876;51.464;-0.150;2022-08-01T03:41:15;101748.90;;;25.04;45.47
49063;BME280;34876;51.464;-0.150;2022-08-01T03:43:50;101749.22;;;25.06;45.41
49063;BME280;34876;51.464;-0.150;2022-08-01T03:46:24;101754.22;;;25.07;45.42
49063;BME280;34876;51.464;-0.150;2022-08-01T03:48:58;101757.37;;;25.08;45.38
49063;BME280;34876;51.464;-0.150;2022-08-01T03:51:30;101763.92;;;25.10;45.33
49063;BME280;34876;51.464;-0.150;2022-08-01T03:54:01;101760.33;;;25.05;45.42
49063;BME280;34876;51.464;-0.150;2022-08-01T03:56:31;101763.65;;;25.01;45.51
49063;BME280;34876;51.464;-0.150;2022-08-01T03:59:01;101760.71;;;25.03;45.48
49063;BME280;34876;51.464;-0.150;2022-08-01T04:01:31;101759.83;;;25.01;45.52
49063;BME280;34876;51.464;-0.150;2022-08-01T04:04:01;101758.68;;;25.04;45.45
49063;BME280;34876;51.464;-0.150;2022-08-01T04:06:31;101757.53;;;25.02;45.47
49063;BME280;34876;51.464;-0.150;2022-08-01T04:09:01;101759.75;;;25.02;45.49
49063;BME280;34876;51.464;-0.150;2022-08-01T04:11:31;101757.59;;;25.02;45.46
49063;BME280;34876;51.464;-0.150;2022-08-01T04:13:59;101754.84;;;25.03;45.45
49063;BME280;34876;51.464;-0.150;2022-08-01T04:16:29;101750.99;;;25.04;45.40
49063;BME280;34876;51.464;-0.150;2022-08-01T04:18:58;101748.38;;;25.04;45.42
49063;BME280;34876;51.464;-0.150;2022-08-01T04:21:29;101744.05;;;25.02;45.46
49063;BME280;34876;51.464;-0.150;2022-08-01T04:24:03;101749.84;;;25.03;45.42
49063;BME280;34876;51.464;-0.150;2022-08-01T04:26:35;101752.10;;;25.01;45.46
49063;BME280;34876;51.464;-0.150;2022-08-01T04:29:05;101752.56;;;25.03;45.42
49063;BME280;34876;51.464;-0.150;2022-08-01T04:31:37;101747.86;;;25.02;45.43
49063;BME280;34876;51.464;-0.150;2022-08-01T04:34:08;101745.50;;;24.99;45.50
49063;BME280;34876;51.464;-0.150;2022-08-01T04:36:39;101746.79;;;24.99;45.51
49063;BME280;34876;51.464;-0.150;2022-08-01T04:39:09;101749.94;;;24.94;45.64
49063;BME280;34876;51.464;-0.150;2022-08-01T04:41:40;101751.47;;;24.94;45.63
49063;BME280;34876;51.464;-0.150;2022-08-01T04:44:09;101753.41;;;24.95;45.59
49063;BME280;34876;51.464;-0.150;2022-08-01T04:46:40;101756.14;;;24.99;45.49
49063;BME280;34876;51.464;-0.150;2022-08-01T04:49:11;101760.06;;;24.96;45.58
49063;BME280;34876;51.464;-0.150;2022-08-01T04:51:50;101760.25;;;24.97;45.53
49063;BME280;34876;51.464;-0.150;2022-08-01T04:54:19;101763.19;;;24.98;45.52
49063;BME280;34876;51.464;-0.150;2022-08-01T04:56:48;101767.56;;;24.99;45.50
49063;BME280;34876;51.464;-0.150;2022-08-01T04:59:18;101766.35;;;24.97;45.53
49063;BME280;34876;51.464;-0.150;2022-08-01T05:01:49;101766.13;;;24.96;45.55
49063;BME280;34876;51.464;-0.150;2022-08-01T05:04:18;101768.51;;;24.98;45.49
49063;BME280;34876;51.464;-0.150;2022-08-01T05:06:47;101777.33;;;24.97;45.53
49063;BME280;34876;51.464;-0.150;2022-08-01T05:09:16;101784.48;;;24.96;45.54
49063;BME280;34876;51.464;-0.150;2022-08-01T05:11:45;101785.46;;;24.96;45.56
49063;BME280;34876;51.464;-0.150;2022-08-01T05:14:14;101786.20;;;24.97;45.51
49063;BME280;34876;51.464;-0.150;2022-08-01T05:16:44;101787.52;;;24.97;45.51
49063;BME280;34876;51.464;-0.150;2022-08-01T05:19:13;101794.76;;;24.98;45.47
49063;BME280;34876;51.464;-0.150;2022-08-01T05:21:42;101795.03;;;24.95;45.54
49063;BME280;34876;51.464;-0.150;2022-08-01T05:24:11;101797.19;;;24.97;45.52
49063;BME280;34876;51.464;-0.150;2022-08-01T05:26:40;101793.51;;;24.95;45.54
49063;BME280;34876;51.464;-0.150;2022-08-01T05:29:09;101787.49;;;24.97;45.50
49063;BME280;34876;51.464;-0.150;2022-08-01T05:31:43;101787.68;;;24.95;45.57
49063;BME280;34876;51.464;-0.150;2022-08-01T05:34:12;101786.70;;;24.93;45.60
49063;BME280;34876;51.464;-0.150;2022-08-01T05:36:42;101785.36;;;24.95;45.57
49063;BME280;34876;51.464;-0.150;2022-08-01T05:39:13;101785.59;;;24.95;45.56
49063;BME280;34876;51.464;-0.150;2022-08-01T05:41:42;101784.95;;;24.97;45.53
49063;BME280;34876;51.464;-0.150;2022-08-01T05:44:11;101785.29;;;24.97;45.53
49063;BME280;34876;51.464;-0.150;2022-08-01T05:46:41;101786.17;;;24.96;45.54
49063;BME280;34876;51.464;-0.150;2022-08-01T05:49:10;101784.63;;;24.94;45.60
49063;BME280;34876;51.464;-0.150;2022-08-01T05:51:39;101786.85;;;24.90;45.70
49063;BME280;34876;51.464;-0.150;2022-08-01T05:54:09;101789.79;;;24.92;45.66
49063;BME280;34876;51.464;-0.150;2022-08-01T05:56:38;101795.92;;;24.95;45.58
49063;BME280;34876;51.464;-0.150;2022-08-01T05:59:08;101800.09;;;24.92;45.69
49063;BME280;34876;51.464;-0.150;2022-08-01T06:01:37;101797.55;;;24.95;45.58
49063;BME280;34876;51.464;-0.150;2022-08-01T06:04:06;101797.10;;;24.95;45.59
49063;BME280;34876;51.464;-0.150;2022-08-01T06:06:35;101798.02;;;24.95;45.59
49063;BME280;34876;51.464;-0.150;2022-08-01T06:09:04;101797.75;;;24.99;45.51
49063;BME280;34876;51.464;-0.150;2022-08-01T06:11:33;101797.10;;;24.99;45.51
49063;BME280;34876;51.464;-0.150;2022-08-01T06:14:02;101797.09;;;24.99;45.50
49063;BME280;34876;51.464;-0.150;2022-08-01T06:16:31;101798.23;;;24.99;45.50
49063;BME280;34876;51.464;-0.150;2022-08-01T06:19:00;101796.13;;;24.97;45.56
49063;BME280;34876;51.464;-0.150;2022-08-01T06:21:29;101794.38;;;24.97;45.56
49063;BME280;34876;51.464;-0.150;2022-08-01T06:23:58;101792.98;;;24.92;45.71
49063;BME280;34876;51.464;-0.150;2022-08-01T06:26:27;101788.67;;;24.90;45.73
49063;BME280;34876;51.464;-0.150;2022-08-01T06:28:56;101793.25;;;24.88;45.79
49063;BME280;34876;51.464;-0.150;2022-08-01T06:31:25;101795.12;;;24.94;45.68
49063;BME280;34876;51.464;-0.150;2022-08-01T06:33:54;101796.72;;;24.94;45.67
49063;BME280;34876;51.464;-0.150;2022-08-01T06:36:23;101794.23;;;24.98;45.56
49063;BME280;34876;51.464;-0.150;2022-08-01T06:38:52;101794.01;;;24.98;45.56
49063;BME280;34876;51.464;-0.150;2022-08-01T06:41:21;101793.74;;;24.94;45.68
49063;BME280;34876;51.464;-0.150;2022-08-01T06:43:49;101794.85;;;24.95;45.66
49063;BME280;34876;51.464;-0.150;2022-08-01T06:46:18;101800.58;;;24.91;45.75
49063;BME280;34876;51.464;-0.150;2022-08-01T06:48:47;101800.99;;;24.93;45.74
49063;BME280;34876;51.464;-0.150;2022-08-01T06:51:16;101805.09;;;24.93;45.74
49063;BME280;34876;51.464;-0.150;2022-08-01T06:53:45;101801.67;;;24.95;45.68
49063;BME280;34876;51.464;-0.150;2022-08-01T06:56:14;101804.41;;;24.93;45.74
49063;BME280;34876;51.464;-0.150;2022-08-01T06:58:43;101807.87;;;24.85;45.95
49063;BME280;34876;51.464;-0.150;2022-08-01T07:01:12;101812.10;;;24.80;46.63
49063;BME280;34876;51.464;-0.150;2022-08-01T07:03:41;101808.79;;;24.91;45.81
49063;BME280;34876;51.464;-0.150;2022-08-01T07:06:11;101809.19;;;24.93;45.77
49063;BME280;34876;51.464;-0.150;2022-08-01T07:08:39;101812.57;;;24.93;45.75
49063;BME280;34876;51.464;-0.150;2022-08-01T07:11:08;101814.39;;;24.95;45.70
49063;BME280;34876;51.464;-0.150;2022-08-01T07:13:37;101813.94;;;24.95;45.73
49063;BME280;34876;51.464;-0.150;2022-08-01T07:16:06;101812.60;;;24.95;45.69
49063;BME280;34876;51.464;-0.150;2022-08-01T07:18:36;101811.51;;;24.96;45.68
49063;BME280;34876;51.464;-0.150;2022-08-01T07:21:05;101808.89;;;24.96;45.66
49063;BME280;34876;51.464;-0.150;2022-08-01T07:23:34;101818.03;;;24.93;45.76
49063;BME280;34876;51.464;-0.150;2022-08-01T07:26:04;101821.45;;;24.99;45.61
49063;BME280;34876;51.464;-0.150;2022-08-01T07:28:33;101820.28;;;25.02;45.53
49063;BME280;34876;51.464;-0.150;2022-08-01T07:31:02;101824.88;;;24.95;45.73
49063;BME280;34876;51.464;-0.150;2022-08-01T07:33:31;101822.51;;;24.98;45.65
49063;BME280;34876;51.464;-0.150;2022-08-01T07:35:59;101822.34;;;24.89;46.04
49063;BME280;34876;51.464;-0.150;2022-08-01T07:38:28;101826.44;;;24.94;45.74
49063;BME280;34876;51.464;-0.150;2022-08-01T07:40:58;101825.03;;;24.96;45.71
49063;BME280;34876;51.464;-0.150;2022-08-01T07:43:27;101829.75;;;24.98;45.63
49063;BME280;34876;51.464;-0.150;2022-08-01T07:45:57;101832.94;;;24.89;45.87
49063;BME280;34876;51.464;-0.150;2022-08-01T07:48:26;101832.54;;;24.96;45.68
49063;BME280;34876;51.464;-0.150;2022-08-01T07:50:55;101833.19;;;25.01;45.56
49063;BME280;34876;51.464;-0.150;2022-08-01T07:53:24;101832.94;;;25.00;45.57
49063;BME280;34876;51.464;-0.150;2022-08-01T07:55:53;101832.26;;;25.03;45.50
49063;BME280;34876;51.464;-0.150;2022-08-01T07:58:22;101831.15;;;25.11;45.33
49063;BME280;34876;51.464;-0.150;2022-08-01T08:00:51;101834.51;;;25.10;45.47
49063;BME280;34876;51.464;-0.150;2022-08-01T08:03:19;101833.73;;;25.03;45.52
49063;BME280;34876;51.464;-0.150;2022-08-01T08:05:48;101834.15;;;25.09;45.37
49063;BME280;34876;51.464;-0.150;2022-08-01T08:08:17;101838.85;;;25.07;45.42
49063;BME280;34876;51.464;-0.150;2022-08-01T08:10:46;101840.45;;;24.55;46.90
49063;BME280;34876;51.464;-0.150;2022-08-01T08:13:15;101842.11;;;25.03;45.51
49063;BME280;34876;51.464;-0.150;2022-08-01T08:15:44;101844.20;;;25.17;45.17
49063;BME280;34876;51.464;-0.150;2022-08-01T08:18:13;101843.61;;;25.32;44.90
49063;BME280;34876;51.464;-0.150;2022-08-01T08:20:42;101845.08;;;25.23;44.96
49063;BME280;34876;51.464;-0.150;2022-08-01T08:23:12;101848.12;;;25.12;45.27
49063;BME280;34876;51.464;-0.150;2022-08-01T08:25:41;101850.46;;;24.97;45.74
49063;BME280;34876;51.464;-0.150;2022-08-01T08:28:11;101844.76;;;25.08;45.36
49063;BME280;34876;51.464;-0.150;2022-08-01T08:30:40;101844.19;;;25.12;45.27
49063;BME280;34876;51.464;-0.150;2022-08-01T08:33:08;101843.88;;;25.13;45.24
49063;BME280;34876;51.464;-0.150;2022-08-01T08:35:39;101844.86;;;25.16;45.15
49063;BME280;34876;51.464;-0.150;2022-08-01T08:38:08;101847.07;;;25.13;45.22
49063;BME280;34876;51.464;-0.150;2022-08-01T08:40:37;101845.47;;;25.14;45.18
49063;BME280;34876;51.464;-0.150;2022-08-01T08:43:06;101843.68;;;25.12;45.24
49063;BME280;34876;51.464;-0.150;2022-08-01T08:45:35;101845.65;;;25.15;45.19
49063;BME280;34876;51.464;-0.150;2022-08-01T08:48:05;101842.78;;;25.17;45.11
49063;BME280;34876;51.464;-0.150;2022-08-01T08:50:36;101842.65;;;25.13;45.20
49063;BME280;34876;51.464;-0.150;2022-08-01T08:53:06;101840.15;;;25.14;45.18
49063;BME280;34876;51.464;-0.150;2022-08-01T08:55:38;101835.94;;;25.16;45.12
49063;BME280;34876;51.464;-0.150;2022-08-01T08:58:07;101834.16;;;25.16;45.12
49063;BME280;34876;51.464;-0.150;2022-08-01T09:00:38;101837.52;;;25.09;45.26
49063;BME280;34876;51.464;-0.150;2022-08-01T09:03:09;101832.84;;;25.08;45.29
49063;BME280;34876;51.464;-0.150;2022-08-01T09:05:38;101836.12;;;25.03;45.47
49063;BME280;34876;51.464;-0.150;2022-08-01T09:08:08;101835.55;;;25.10;45.25
49063;BME280;34876;51.464;-0.150;2022-08-01T09:10:37;101837.10;;;25.14;45.15
49063;BME280;34876;51.464;-0.150;2022-08-01T09:13:08;101837.83;;;25.15;45.10
49063;BME280;34876;51.464;-0.150;2022-08-01T09:15:40;101837.72;;;25.02;45.38
49063;BME280;34876;51.464;-0.150;2022-08-01T09:18:25;101836.03;;;25.08;45.29
49063;BME280;34876;51.464;-0.150;2022-08-01T09:21:14;101837.48;;;25.06;45.29
49063;BME280;34876;51.464;-0.150;2022-08-01T09:23:46;101839.51;;;24.99;45.45
49063;BME280;34876;51.464;-0.150;2022-08-01T09:26:17;101844.44;;;25.13;45.12
49063;BME280;34876;51.464;-0.150;2022-08-01T09:28:47;101845.26;;;25.20;44.91
49063;BME280;34876;51.464;-0.150;2022-08-01T09:31:18;101845.74;;;25.19;44.90
49063;BME280;34876;51.464;-0.150;2022-08-01T09:33:51;101843.68;;;25.26;44.73
49063;BME280;34876;51.464;-0.150;2022-08-01T09:36:23;101842.22;;;25.20;44.84
49063;BME280;34876;51.464;-0.150;2022-08-01T09:38:54;101837.35;;;25.35;44.46
49063;BME280;34876;51.464;-0.150;2022-08-01T09:41:30;101838.13;;;25.53;44.02
49063;BME280;34876;51.464;-0.150;2022-08-01T09:43:59;101841.10;;;25.33;44.47
49063;BME280;34876;51.464;-0.150;2022-08-01T09:46:28;101843.45;;;25.27;44.64
49063;BME280;34876;51.464;-0.150;2022-08-01T09:48:59;101846.65;;;25.13;44.94
49063;BME280;34876;51.464;-0.150;2022-08-01T09:51:32;101845.77;;;25.16;44.89
49063;BME280;34876;51.464;-0.150;2022-08-01T09:54:03;101846.61;;;25.29;44.52
49063;BME280;34876;51.464;-0.150;2022-08-01T09:56:37;101847.63;;;25.55;43.92
49063;BME280;34876;51.464;-0.150;2022-08-01T09:59:06;101845.08;;;25.57;43.80
49063;BME280;34876;51.464;-0.150;2022-08-01T10:01:45;101843.76;;;25.39;44.23
49063;BME280;34876;51.464;-0.150;2022-08-01T10:04:16;101843.74;;;25.26;44.55
49063;BME280;34876;51.464;-0.150;2022-08-01T10:06:48;101838.17;;;25.47;44.04
49063;BME280;34876;51.464;-0.150;2022-08-01T10:09:27;101833.42;;;25.28;44.44
49063;BME280;34876;51.464;-0.150;2022-08-01T10:11:56;101839.25;;;25.33;44.34
49063;BME280;34876;51.464;-0.150;2022-08-01T10:14:28;101839.82;;;25.28;44.42
49063;BME280;34876;51.464;-0.150;2022-08-01T10:16:59;101842.90;;;25.28;44.43
49063;BME280;34876;51.464;-0.150;2022-08-01T10:19:30;101846.50;;;25.27;44.44
49063;BME280;34876;51.464;-0.150;2022-08-01T10:22:00;101848.96;;;24.85;45.49
49063;BME280;34876;51.464;-0.150;2022-08-01T10:24:30;101842.57;;;25.24;44.52
49063;BME280;34876;51.464;-0.150;2022-08-01T10:27:04;101839.58;;;25.22;44.78
49063;BME280;34876;51.464;-0.150;2022-08-01T10:29:37;101833.14;;;25.49;43.85
49063;BME280;34876;51.464;-0.150;2022-08-01T10:32:09;101834.97;;;25.47;43.87
49063;BME280;34876;51.464;-0.150;2022-08-01T10:34:39;101835.12;;;25.66;43.39
49063;BME280;34876;51.464;-0.150;2022-08-01T10:37:08;101833.09;;;25.78;43.11
49063;BME280;34876;51.464;-0.150;2022-08-01T10:39:39;101832.32;;;25.54;43.72
49063;BME280;34876;51.464;-0.150;2022-08-01T10:42:10;101832.00;;;25.47;43.82
49063;BME280;34876;51.464;-0.150;2022-08-01T10:44:40;101827.72;;;25.55;43.76
49063;BME280;34876;51.464;-0.150;2022-08-01T10:47:11;101825.12;;;25.55;43.58
49063;BME280;34876;51.464;-0.150;2022-08-01T10:49:45;101816.87;;;25.61;43.59
49063;BME280;34876;51.464;-0.150;2022-08-01T10:52:17;101822.89;;;25.63;43.39
49063;BME280;34876;51.464;-0.150;2022-08-01T10:54:46;101823.77;;;25.49;43.70
49063;BME280;34876;51.464;-0.150;2022-08-01T10:57:15;101817.02;;;25.76;43.08
49063;BME280;34876;51.464;-0.150;2022-08-01T10:59:49;101816.60;;;25.90;42.68
49063;BME280;34876;51.464;-0.150;2022-08-01T11:02:27;101817.22;;;25.61;43.35
49063;BME280;34876;51.464;-0.150;2022-08-01T11:05:01;101811.40;;;25.69;43.17
49063;BME280;34876;51.464;-0.150;2022-08-01T11:07:41;101810.60;;;25.68;43.17
49063;BME280;34876;51.464;-0.150;2022-08-01T11:10:21;101813.69;;;25.80;42.90
49063;BME280;34876;51.464;-0.150;2022-08-01T11:12:51;101812.98;;;25.78;42.94
49063;BME280;34876;51.464;-0.150;2022-08-01T11:15:22;101805.95;;;25.64;43.37
49063;BME280;34876;51.464;-0.150;2022-08-01T11:17:53;101803.03;;;25.68;43.15
49063;BME280;34876;51.464;-0.150;2022-08-01T11:20:24;101797.15;;;25.62;43.25
49063;BME280;34876;51.464;-0.150;2022-08-01T11:23:18;101805.72;;;25.50;43.89
49063;BME280;34876;51.464;-0.150;2022-08-01T11:26:21;101801.98;;;25.53;43.48
49063;BME280;34876;51.464;-0.150;2022-08-01T11:29:21;101794.57;;;25.79;42.87
49063;BME280;34876;51.464;-0.150;2022-08-01T11:31:51;101797.03;;;25.76;42.90
49063;BME280;34876;51.464;-0.150;2022-08-01T11:34:20;101794.30;;;25.57;43.42
49063;BME280;34876;51.464;-0.150;2022-08-01T11:37:25;101798.69;;;25.20;44.25
49063;BME280;34876;51.464;-0.150;2022-08-01T11:40:15;101794.40;;;25.38;43.83
49063;BME280;34876;51.464;-0.150;2022-08-01T11:42:45;101794.68;;;25.39;43.88
49063;BME280;34876;51.464;-0.150;2022-08-01T11:45:14;101787.14;;;25.61;43.23
49063;BME280;34876;51.464;-0.150;2022-08-01T11:47:45;101786.44;;;25.76;42.86
49063;BME280;34876;51.464;-0.150;2022-08-01T11:50:33;101785.18;;;25.58;43.28
49063;BME280;34876;51.464;-0.150;2022-08-01T11:53:04;101780.53;;;25.73;42.90
49063;BME280;34876;51.464;-0.150;2022-08-01T11:55:34;101781.38;;;25.70;43.09
49063;BME280;34876;51.464;-0.150;2022-08-01T11:58:05;101784.52;;;25.73;43.44
49063;BME280;34876;51.464;-0.150;2022-08-01T12:00:35;101790.03;;;25.68;43.02
49063;BME280;34876;51.464;-0.150;2022-08-01T12:03:07;101787.19;;;25.82;42.68
49063;BME280;34876;51.464;-0.150;2022-08-01T12:05:36;101783.37;;;26.01;42.28
49063;BME280;34876;51.464;-0.150;2022-08-01T12:08:05;101780.74;;;26.16;41.96
49063;BME280;34876;51.464;-0.150;2022-08-01T12:10:36;101783.28;;;26.17;42.62
49063;BME280;34876;51.464;-0.150;2022-08-01T12:13:06;101780.57;;;26.00;42.84
49063;BME280;34876;51.464;-0.150;2022-08-01T12:15:37;101779.08;;;25.82;42.72
49063;BME280;34876;51.464;-0.150;2022-08-01T12:18:08;101775.31;;;25.69;42.96
49063;BME280;34876;51.464;-0.150;2022-08-01T12:20:39;101774.57;;;25.52;43.35
49063;BME280;34876;51.464;-0.150;2022-08-01T12:23:11;101773.20;;;25.57;43.60
49063;BME280;34876;51.464;-0.150;2022-08-01T12:25:42;101771.28;;;25.50;43.43
49063;BME280;34876;51.464;-0.150;2022-08-01T12:28:12;101769.31;;;25.65;43.05
49063;BME280;34876;51.464;-0.150;2022-08-01T12:30:42;101766.74;;;25.46;43.49
49063;BME280;34876;51.464;-0.150;2022-08-01T12:33:17;101761.85;;;25.57;43.25
49063;BME280;34876;51.464;-0.150;2022-08-01T12:35:48;101761.26;;;25.54;43.29
49063;BME280;34876;51.464;-0.150;2022-08-01T12:38:20;101759.12;;;25.84;42.62
49063;BME280;34876;51.464;-0.150;2022-08-01T12:40:51;101759.31;;;25.79;42.73
49063;BME280;34876;51.464;-0.150;2022-08-01T12:43:22;101758.64;;;25.91;43.04
49063;BME280;34876;51.464;-0.150;2022-08-01T12:45:53;101753.58;;;25.94;42.35
49063;BME280;34876;51.464;-0.150;2022-08-01T12:48:22;101747.40;;;25.76;42.80
49063;BME280;34876;51.464;-0.150;2022-08-01T12:50:53;101749.95;;;25.87;42.52
49063;BME280;34876;51.464;-0.150;2022-08-01T12:53:25;101750.90;;;25.96;42.86
49063;BME280;34876;51.464;-0.150;2022-08-01T12:55:55;101750.75;;;25.94;42.57
49063;BME280;34876;51.464;-0.150;2022-08-01T12:58:23;101747.79;;;25.93;43.28
49063;BME280;34876;51.464;-0.150;2022-08-01T13:01:03;101743.37;;;26.08;42.95
49063;BME280;34876;51.464;-0.150;2022-08-01T13:03:34;101737.24;;;26.32;41.63